sensor_id;sensor_type;location;lat;lon;timestamp;P1;durP1;ratioP1;P2;durP2;ratioP2
9398;SDS011;4739;49.334;8.792;2022-09-09T00:00:14;2.97;;;1.00;;
9398;SDS011;4739;49.334;8.792;2022-09-09T00:02:43;1.80;;;1.00;;
9398;SDS011;4739;49.334;8.792;2022-09-09T00:05:15;2.30;;;1.10;;
9398;SDS011;4739;49.334;8.792;2022-09-09T00:07:47;2.80;;;1.20;;
9398;SDS011;4739;49.334;8.792;2022-09-09T00:10:19;2.47;;;1.07;;
9398;SDS011;4739;49.334;8.792;2022-09-09T00:15:38;4.10;;;1.00;;
9398;SDS011;4739;49.334;8.792;2022-09-09T00:20:49;4.27;;;1.10;;
9398;SDS011;4739;49.334;8.792;2022-09-09T00:23:20;4.00;;;1.17;;
9398;SDS011;4739;49.334;8.792;2022-09-09T00:25:53;3.43;;;1.10;;
9398;SDS011;4739;49.334;8.792;2022-09-09T00:28:25;1.87;;;1.00;;
9398;SDS011;4739;49.334;8.792;2022-09-09T00:30:51;2.47;;;1.40;;
9398;SDS011;4739;49.334;8.792;2022-09-09T00:33:19;1.77;;;1.07;;
9398;SDS011;4739;49.334;8.792;2022-09-09T00:35:48;1.60;;;1.00;;
9398;SDS011;4739;49.334;8.792;2022-09-09T00:38:16;2.23;;;1.03;;
9398;SDS011;4739;49.334;8.792;2022-09-09T00:40:46;5.13;;;1.10;;
9398;SDS011;4739;49.334;8.792;2022-09-09T00:48:22;2.00;;;1.00;;
9398;SDS011;4739;49.334;8.792;2022-09-09T00:51:00;1.60;;;0.90;;
9398;SDS011;4739;49.334;8.792;2022-09-09T00:53:37;2.23;;;0.70;;
9398;SDS011;4739;49.334;8.792;2022-09-09T00:59:07;2.50;;;1.13;;
9398;SDS011;4739;49.334;8.792;2022-09-09T01:01:36;1.27;;;1.10;;
9398;SDS011;4739;49.334;8.792;2022-09-09T01:04:04;2.47;;;1.07;;
9398;SDS011;4739;49.334;8.792;2022-09-09T01:06:34;1.47;;;0.90;;
9398;SDS011;4739;49.334;8.792;2022-09-09T01:11:37;1.63;;;1.07;;
9398;SDS011;4739;49.334;8.792;2022-09-09T01:16:52;2.87;;;1.03;;
9398;SDS011;4739;49.334;8.792;2022-09-09T01:19:24;1.67;;;1.00;;
9398;SDS011;4739;49.334;8.792;2022-09-09T01:21:59;1.20;;;1.00;;
9398;SDS011;4739;49.334;8.792;2022-09-09T01:24:31;4.20;;;0.90;;
9398;SDS011;4739;49.334;8.792;2022-09-09T01:27:01;2.53;;;1.20;;
9398;SDS011;4739;49.334;8.792;2022-09-09T01:29:27;2.70;;;1.20;;
9398;SDS011;4739;49.334;8.792;2022-09-09T01:31:58;1.97;;;1.00;;
9398;SDS011;4739;49.334;8.792;2022-09-09T01:34:26;3.47;;;1.10;;
9398;SDS011;4739;49.334;8.792;2022-09-09T01:37:05;2.23;;;1.40;;
9398;SDS011;4739;49.334;8.792;2022-09-09T01:39:33;1.23;;;1.00;;
9398;SDS011;4739;49.334;8.792;2022-09-09T01:41:59;2.33;;;0.93;;
9398;SDS011;4739;49.334;8.792;2022-09-09T01:44:25;2.17;;;1.10;;
9398;SDS011;4739;49.334;8.792;2022-09-09T01:46:51;1.80;;;1.00;;
9398;SDS011;4739;49.334;8.792;2022-09-09T01:49:17;2.57;;;1.30;;
9398;SDS011;4739;49.334;8.792;2022-09-09T01:51:43;2.63;;;1.30;;
9398;SDS011;4739;49.334;8.792;2022-09-09T01:54:10;1.90;;;1.50;;
9398;SDS011;4739;49.334;8.792;2022-09-09T01:56:42;1.07;;;0.90;;
9398;SDS011;4739;49.334;8.792;2022-09-09T02:06:53;1.90;;;1.20;;
9398;SDS011;4739;49.334;8.792;2022-09-09T02:09:23;1.77;;;0.93;;
9398;SDS011;4739;49.334;8.792;2022-09-09T02:11:49;2.30;;;1.30;;
9398;SDS011;4739;49.334;8.792;2022-09-09T02:14:22;2.90;;;1.03;;
9398;SDS011;4739;49.334;8.792;2022-09-09T02:16:52;2.37;;;0.93;;
9398;SDS011;4739;49.334;8.792;2022-09-09T02:19:25;2.50;;;0.90;;
9398;SDS011;4739;49.334;8.792;2022-09-09T02:21:55;3.43;;;1.07;;
9398;SDS011;4739;49.334;8.792;2022-09-09T02:24:21;1.37;;;1.20;;
9398;SDS011;4739;49.334;8.792;2022-09-09T02:26:48;2.70;;;1.00;;
9398;SDS011;4739;49.334;8.792;2022-09-09T02:29:21;2.00;;;1.10;;
9398;SDS011;4739;49.334;8.792;2022-09-09T02:31:48;1.23;;;1.00;;
9398;SDS011;4739;49.334;8.792;2022-09-09T02:34:15;2.80;;;1.23;;
9398;SDS011;4739;49.334;8.792;2022-09-09T02:36:44;4.93;;;1.30;;
9398;SDS011;4739;49.334;8.792;2022-09-09T02:39:11;3.70;;;1.10;;
9398;SDS011;4739;49.334;8.792;2022-09-09T02:41:40;2.53;;;1.20;;
9398;SDS011;4739;49.334;8.792;2022-09-09T02:44:13;3.10;;;1.30;;
9398;SDS011;4739;49.334;8.792;2022-09-09T02:49:40;3.93;;;1.43;;
9398;SDS011;4739;49.334;8.792;2022-09-09T02:52:17;1.90;;;1.13;;
9398;SDS011;4739;49.334;8.792;2022-09-09T02:54:44;3.13;;;1.10;;
9398;SDS011;4739;49.334;8.792;2022-09-09T02:57:11;2.03;;;1.07;;
9398;SDS011;4739;49.334;8.792;2022-09-09T02:59:38;3.63;;;1.37;;
9398;SDS011;4739;49.334;8.792;2022-09-09T03:02:05;3.97;;;1.20;;
9398;SDS011;4739;49.334;8.792;2022-09-09T03:04:31;3.73;;;1.77;;
9398;SDS011;4739;49.334;8.792;2022-09-09T03:06:58;3.00;;;1.30;;
9398;SDS011;4739;49.334;8.792;2022-09-09T03:09:24;3.03;;;1.20;;
9398;SDS011;4739;49.334;8.792;2022-09-09T03:11:51;3.53;;;1.57;;
9398;SDS011;4739;49.334;8.792;2022-09-09T03:14:17;2.70;;;1.40;;
9398;SDS011;4739;49.334;8.792;2022-09-09T03:16:46;1.73;;;1.40;;
9398;SDS011;4739;49.334;8.792;2022-09-09T03:19:12;3.37;;;1.33;;
9398;SDS011;4739;49.334;8.792;2022-09-09T03:21:38;5.50;;;1.60;;
9398;SDS011;4739;49.334;8.792;2022-09-09T03:24:04;2.27;;;1.30;;
9398;SDS011;4739;49.334;8.792;2022-09-09T03:26:31;3.23;;;1.57;;
9398;SDS011;4739;49.334;8.792;2022-09-09T03:28:57;2.50;;;1.30;;
9398;SDS011;4739;49.334;8.792;2022-09-09T03:31:25;7.17;;;1.47;;
9398;SDS011;4739;49.334;8.792;2022-09-09T03:33:54;3.83;;;1.20;;
9398;SDS011;4739;49.334;8.792;2022-09-09T03:36:20;2.50;;;1.40;;
9398;SDS011;4739;49.334;8.792;2022-09-09T03:38:46;3.23;;;1.30;;
9398;SDS011;4739;49.334;8.792;2022-09-09T03:41:12;3.57;;;1.40;;
9398;SDS011;4739;49.334;8.792;2022-09-09T03:43:39;2.37;;;1.37;;
9398;SDS011;4739;49.334;8.792;2022-09-09T03:46:06;5.13;;;1.40;;
9398;SDS011;4739;49.334;8.792;2022-09-09T03:48:32;2.83;;;1.20;;
9398;SDS011;4739;49.334;8.792;2022-09-09T03:50:58;4.60;;;1.17;;
9398;SDS011;4739;49.334;8.792;2022-09-09T03:53:26;3.23;;;1.83;;
9398;SDS011;4739;49.334;8.792;2022-09-09T03:55:53;4.50;;;2.70;;
9398;SDS011;4739;49.334;8.792;2022-09-09T03:58:20;2.60;;;1.50;;
9398;SDS011;4739;49.334;8.792;2022-09-09T04:00:56;2.97;;;1.13;;
9398;SDS011;4739;49.334;8.792;2022-09-09T04:03:23;5.97;;;1.60;;
9398;SDS011;4739;49.334;8.792;2022-09-09T04:05:53;3.53;;;1.30;;
9398;SDS011;4739;49.334;8.792;2022-09-09T04:08:19;2.57;;;1.40;;
9398;SDS011;4739;49.334;8.792;2022-09-09T04:10:46;4.30;;;1.43;;
9398;SDS011;4739;49.334;8.792;2022-09-09T04:13:12;2.23;;;1.20;;
9398;SDS011;4739;49.334;8.792;2022-09-09T04:15:39;2.03;;;1.27;;
9398;SDS011;4739;49.334;8.792;2022-09-09T04:18:05;2.60;;;1.20;;
9398;SDS011;4739;49.334;8.792;2022-09-09T04:20:31;1.80;;;1.10;;
9398;SDS011;4739;49.334;8.792;2022-09-09T04:22:58;2.87;;;1.50;;
9398;SDS011;4739;49.334;8.792;2022-09-09T04:25:24;3.63;;;1.30;;
9398;SDS011;4739;49.334;8.792;2022-09-09T04:27:56;1.50;;;1.10;;
9398;SDS011;4739;49.334;8.792;2022-09-09T04:30:23;1.60;;;1.03;;
9398;SDS011;4739;49.334;8.792;2022-09-09T04:32:50;5.00;;;1.43;;
9398;SDS011;4739;49.334;8.792;2022-09-09T04:35:16;2.37;;;1.13;;
9398;SDS011;4739;49.334;8.792;2022-09-09T04:37:41;3.73;;;2.33;;
9398;SDS011;4739;49.334;8.792;2022-09-09T04:40:08;2.73;;;1.30;;
9398;SDS011;4739;49.334;8.792;2022-09-09T04:42:37;2.13;;;1.33;;
9398;SDS011;4739;49.334;8.792;2022-09-09T04:45:04;1.83;;;1.30;;
9398;SDS011;4739;49.334;8.792;2022-09-09T04:47:31;3.63;;;1.50;;
9398;SDS011;4739;49.334;8.792;2022-09-09T04:49:57;3.93;;;1.40;;
9398;SDS011;4739;49.334;8.792;2022-09-09T04:52:23;3.30;;;1.60;;
9398;SDS011;4739;49.334;8.792;2022-09-09T04:54:49;2.60;;;1.30;;
9398;SDS011;4739;49.334;8.792;2022-09-09T04:57:15;3.47;;;1.40;;
9398;SDS011;4739;49.334;8.792;2022-09-09T04:59:41;5.70;;;1.50;;
9398;SDS011;4739;49.334;8.792;2022-09-09T05:02:07;3.27;;;1.20;;
9398;SDS011;4739;49.334;8.792;2022-09-09T05:04:33;2.17;;;1.50;;
9398;SDS011;4739;49.334;8.792;2022-09-09T05:06:59;2.60;;;1.30;;
9398;SDS011;4739;49.334;8.792;2022-09-09T05:09:25;4.30;;;1.40;;
9398;SDS011;4739;49.334;8.792;2022-09-09T05:11:51;2.43;;;1.30;;
9398;SDS011;4739;49.334;8.792;2022-09-09T05:14:17;2.87;;;1.30;;
9398;SDS011;4739;49.334;8.792;2022-09-09T05:16:44;4.27;;;1.20;;
9398;SDS011;4739;49.334;8.792;2022-09-09T05:19:10;1.43;;;1.10;;
9398;SDS011;4739;49.334;8.792;2022-09-09T05:21:36;2.03;;;1.37;;
9398;SDS011;4739;49.334;8.792;2022-09-09T05:24:02;3.67;;;1.43;;
9398;SDS011;4739;49.334;8.792;2022-09-09T05:26:28;4.17;;;1.50;;
9398;SDS011;4739;49.334;8.792;2022-09-09T05:28:54;2.67;;;1.37;;
9398;SDS011;4739;49.334;8.792;2022-09-09T05:31:21;2.60;;;1.40;;
9398;SDS011;4739;49.334;8.792;2022-09-09T05:33:48;4.47;;;1.17;;
9398;SDS011;4739;49.334;8.792;2022-09-09T05:36:17;4.07;;;1.50;;
9398;SDS011;4739;49.334;8.792;2022-09-09T05:38:43;3.17;;;1.50;;
9398;SDS011;4739;49.334;8.792;2022-09-09T05:41:10;3.73;;;1.40;;
9398;SDS011;4739;49.334;8.792;2022-09-09T05:43:37;2.17;;;1.40;;
9398;SDS011;4739;49.334;8.792;2022-09-09T05:46:10;3.13;;;1.40;;
9398;SDS011;4739;49.334;8.792;2022-09-09T05:48:38;3.33;;;1.60;;
9398;SDS011;4739;49.334;8.792;2022-09-09T05:51:06;3.07;;;1.43;;
9398;SDS011;4739;49.334;8.792;2022-09-09T05:53:34;9.70;;;1.80;;
9398;SDS011;4739;49.334;8.792;2022-09-09T05:56:00;6.13;;;1.97;;
9398;SDS011;4739;49.334;8.792;2022-09-09T05:58:28;6.43;;;1.80;;
9398;SDS011;4739;49.334;8.792;2022-09-09T06:01:04;6.50;;;2.03;;
9398;SDS011;4739;49.334;8.792;2022-09-09T06:03:33;9.37;;;1.90;;
9398;SDS011;4739;49.334;8.792;2022-09-09T06:06:00;7.93;;;1.53;;
9398;SDS011;4739;49.334;8.792;2022-09-09T06:08:30;6.47;;;1.93;;
9398;SDS011;4739;49.334;8.792;2022-09-09T06:11:03;4.97;;;1.90;;
9398;SDS011;4739;49.334;8.792;2022-09-09T06:13:31;2.80;;;1.50;;
9398;SDS011;4739;49.334;8.792;2022-09-09T06:15:57;4.83;;;1.60;;
9398;SDS011;4739;49.334;8.792;2022-09-09T06:18:23;4.30;;;1.77;;
9398;SDS011;4739;49.334;8.792;2022-09-09T06:20:53;3.10;;;1.70;;
9398;SDS011;4739;49.334;8.792;2022-09-09T06:23:22;2.83;;;1.50;;
9398;SDS011;4739;49.334;8.792;2022-09-09T06:25:49;2.30;;;1.27;;
9398;SDS011;4739;49.334;8.792;2022-09-09T06:28:15;3.30;;;1.30;;
9398;SDS011;4739;49.334;8.792;2022-09-09T06:30:42;7.77;;;1.87;;
9398;SDS011;4739;49.334;8.792;2022-09-09T06:33:08;6.40;;;1.53;;
9398;SDS011;4739;49.334;8.792;2022-09-09T06:35:34;5.70;;;1.40;;
9398;SDS011;4739;49.334;8.792;2022-09-09T06:38:00;5.73;;;1.50;;
9398;SDS011;4739;49.334;8.792;2022-09-09T06:40:25;4.90;;;1.50;;
9398;SDS011;4739;49.334;8.792;2022-09-09T06:42:51;3.37;;;0.90;;
9398;SDS011;4739;49.334;8.792;2022-09-09T06:45:17;3.63;;;0.90;;
9398;SDS011;4739;49.334;8.792;2022-09-09T06:47:42;4.67;;;0.90;;
9398;SDS011;4739;49.334;8.792;2022-09-09T06:50:09;2.10;;;0.97;;
9398;SDS011;4739;49.334;8.792;2022-09-09T06:52:36;3.07;;;1.00;;
9398;SDS011;4739;49.334;8.792;2022-09-09T06:55:01;2.60;;;0.70;;
9398;SDS011;4739;49.334;8.792;2022-09-09T06:57:28;5.53;;;1.00;;
9398;SDS011;4739;49.334;8.792;2022-09-09T06:59:53;3.77;;;0.93;;
9398;SDS011;4739;49.334;8.792;2022-09-09T07:02:19;2.43;;;0.90;;
9398;SDS011;4739;49.334;8.792;2022-09-09T07:04:45;3.73;;;0.90;;
9398;SDS011;4739;49.334;8.792;2022-09-09T07:07:10;3.57;;;1.00;;
9398;SDS011;4739;49.334;8.792;2022-09-09T07:09:38;3.77;;;1.00;;
9398;SDS011;4739;49.334;8.792;2022-09-09T07:12:05;4.47;;;1.00;;
9398;SDS011;4739;49.334;8.792;2022-09-09T07:14:31;2.07;;;0.70;;
9398;SDS011;4739;49.334;8.792;2022-09-09T07:16:57;2.20;;;1.00;;
9398;SDS011;4739;49.334;8.792;2022-09-09T07:19:23;1.90;;;1.10;;
9398;SDS011;4739;49.334;8.792;2022-09-09T07:21:48;1.73;;;0.70;;
9398;SDS011;4739;49.334;8.792;2022-09-09T07:24:15;3.40;;;0.93;;
9398;SDS011;4739;49.334;8.792;2022-09-09T07:26:40;1.73;;;0.80;;
9398;SDS011;4739;49.334;8.792;2022-09-09T07:29:06;4.40;;;1.20;;
9398;SDS011;4739;49.334;8.792;2022-09-09T07:31:34;3.70;;;1.10;;
9398;SDS011;4739;49.334;8.792;2022-09-09T07:34:01;4.07;;;1.00;;
9398;SDS011;4739;49.334;8.792;2022-09-09T07:36:32;4.13;;;1.20;;
9398;SDS011;4739;49.334;8.792;2022-09-09T07:38:59;4.53;;;1.33;;
9398;SDS011;4739;49.334;8.792;2022-09-09T07:41:32;4.03;;;1.00;;
9398;SDS011;4739;49.334;8.792;2022-09-09T07:44:07;4.20;;;1.07;;
9398;SDS011;4739;49.334;8.792;2022-09-09T07:46:35;5.40;;;1.20;;
9398;SDS011;4739;49.334;8.792;2022-09-09T07:49:01;5.07;;;1.30;;
9398;SDS011;4739;49.334;8.792;2022-09-09T07:51:29;4.47;;;1.17;;
9398;SDS011;4739;49.334;8.792;2022-09-09T07:54:06;2.73;;;1.00;;
9398;SDS011;4739;49.334;8.792;2022-09-09T07:56:34;3.73;;;1.17;;
9398;SDS011;4739;49.334;8.792;2022-09-09T07:59:00;4.53;;;1.20;;
9398;SDS011;4739;49.334;8.792;2022-09-09T08:01:27;4.77;;;1.23;;
9398;SDS011;4739;49.334;8.792;2022-09-09T08:03:57;4.67;;;0.97;;
9398;SDS011;4739;49.334;8.792;2022-09-09T08:06:26;4.27;;;1.33;;
9398;SDS011;4739;49.334;8.792;2022-09-09T08:08:58;3.50;;;1.07;;
9398;SDS011;4739;49.334;8.792;2022-09-09T08:11:24;5.00;;;1.27;;
9398;SDS011;4739;49.334;8.792;2022-09-09T08:13:52;4.27;;;1.23;;
9398;SDS011;4739;49.334;8.792;2022-09-09T08:16:19;2.90;;;1.17;;
9398;SDS011;4739;49.334;8.792;2022-09-09T08:18:47;4.47;;;1.10;;
9398;SDS011;4739;49.334;8.792;2022-09-09T08:21:15;2.90;;;1.10;;
9398;SDS011;4739;49.334;8.792;2022-09-09T08:23:43;3.70;;;1.00;;
9398;SDS011;4739;49.334;8.792;2022-09-09T08:28:41;3.60;;;1.53;;
9398;SDS011;4739;49.334;8.792;2022-09-09T08:31:08;4.73;;;1.37;;
9398;SDS011;4739;49.334;8.792;2022-09-09T08:33:42;4.83;;;1.50;;
9398;SDS011;4739;49.334;8.792;2022-09-09T08:36:11;2.80;;;1.00;;
9398;SDS011;4739;49.334;8.792;2022-09-09T08:38:40;3.67;;;1.00;;
9398;SDS011;4739;49.334;8.792;2022-09-09T08:52:16;3.70;;;1.17;;
9398;SDS011;4739;49.334;8.792;2022-09-09T08:54:46;3.33;;;1.17;;
9398;SDS011;4739;49.334;8.792;2022-09-09T08:57:18;3.90;;;1.10;;
9398;SDS011;4739;49.334;8.792;2022-09-09T08:59:51;4.60;;;1.10;;
9398;SDS011;4739;49.334;8.792;2022-09-09T09:02:26;4.30;;;1.20;;
9398;SDS011;4739;49.334;8.792;2022-09-09T09:05:31;3.77;;;0.93;;
9398;SDS011;4739;49.334;8.792;2022-09-09T09:08:25;7.53;;;1.23;;
9398;SDS011;4739;49.334;8.792;2022-09-09T09:11:08;4.10;;;1.10;;
9398;SDS011;4739;49.334;8.792;2022-09-09T09:13:54;3.80;;;1.23;;
9398;SDS011;4739;49.334;8.792;2022-09-09T09:19:00;4.90;;;1.20;;
9398;SDS011;4739;49.334;8.792;2022-09-09T09:21:36;3.97;;;1.10;;
9398;SDS011;4739;49.334;8.792;2022-09-09T09:26:45;7.70;;;1.43;;
9398;SDS011;4739;49.334;8.792;2022-09-09T09:29:14;6.90;;;1.20;;
9398;SDS011;4739;49.334;8.792;2022-09-09T09:31:45;4.40;;;1.30;;
9398;SDS011;4739;49.334;8.792;2022-09-09T09:34:16;3.10;;;1.20;;
9398;SDS011;4739;49.334;8.792;2022-09-09T09:36:52;5.23;;;1.07;;
9398;SDS011;4739;49.334;8.792;2022-09-09T09:39:32;5.27;;;1.20;;
9398;SDS011;4739;49.334;8.792;2022-09-09T09:42:09;5.00;;;1.07;;
9398;SDS011;4739;49.334;8.792;2022-09-09T09:44:40;3.43;;;1.00;;
9398;SDS011;4739;49.334;8.792;2022-09-09T09:47:14;4.10;;;1.13;;
9398;SDS011;4739;49.334;8.792;2022-09-09T09:49:55;3.60;;;1.30;;
9398;SDS011;4739;49.334;8.792;2022-09-09T09:52:24;2.73;;;1.07;;
9398;SDS011;4739;49.334;8.792;2022-09-09T09:54:54;3.60;;;1.10;;
9398;SDS011;4739;49.334;8.792;2022-09-09T09:57:23;2.60;;;1.00;;
9398;SDS011;4739;49.334;8.792;2022-09-09T10:00:04;2.93;;;1.17;;
9398;SDS011;4739;49.334;8.792;2022-09-09T10:02:40;3.30;;;1.17;;
9398;SDS011;4739;49.334;8.792;2022-09-09T10:07:45;4.33;;;1.30;;
9398;SDS011;4739;49.334;8.792;2022-09-09T10:13:20;2.37;;;0.87;;
9398;SDS011;4739;49.334;8.792;2022-09-09T10:18:45;4.27;;;1.10;;
9398;SDS011;4739;49.334;8.792;2022-09-09T10:21:28;3.83;;;1.10;;
9398;SDS011;4739;49.334;8.792;2022-09-09T10:31:52;3.17;;;1.23;;
9398;SDS011;4739;49.334;8.792;2022-09-09T10:37:23;3.73;;;1.00;;
9398;SDS011;4739;49.334;8.792;2022-09-09T10:40:11;4.77;;;1.30;;
9398;SDS011;4739;49.334;8.792;2022-09-09T10:42:45;2.47;;;1.00;;
9398;SDS011;4739;49.334;8.792;2022-09-09T10:47:53;2.07;;;0.87;;
9398;SDS011;4739;49.334;8.792;2022-09-09T10:55:56;2.23;;;0.80;;
9398;SDS011;4739;49.334;8.792;2022-09-09T11:01:18;2.57;;;0.90;;
9398;SDS011;4739;49.334;8.792;2022-09-09T11:03:49;2.87;;;0.90;;
9398;SDS011;4739;49.334;8.792;2022-09-09T11:06:21;3.73;;;1.00;;
9398;SDS011;4739;49.334;8.792;2022-09-09T11:08:53;3.40;;;0.83;;
9398;SDS011;4739;49.334;8.792;2022-09-09T11:11:53;3.30;;;1.20;;
9398;SDS011;4739;49.334;8.792;2022-09-09T11:14:20;2.70;;;0.80;;
9398;SDS011;4739;49.334;8.792;2022-09-09T11:16:56;3.70;;;0.90;;
9398;SDS011;4739;49.334;8.792;2022-09-09T11:22:14;3.43;;;0.90;;
9398;SDS011;4739;49.334;8.792;2022-09-09T11:38:23;3.40;;;0.73;;
9398;SDS011;4739;49.334;8.792;2022-09-09T11:41:11;4.00;;;1.10;;
9398;SDS011;4739;49.334;8.792;2022-09-09T11:43:39;2.00;;;0.60;;
9398;SDS011;4739;49.334;8.792;2022-09-09T11:46:05;2.78;;;0.88;;
9398;SDS011;4739;49.334;8.792;2022-09-09T11:51:13;1.97;;;0.80;;
9398;SDS011;4739;49.334;8.792;2022-09-09T11:53:57;2.50;;;0.77;;
9398;SDS011;4739;49.334;8.792;2022-09-09T11:56:31;2.83;;;1.00;;
9398;SDS011;4739;49.334;8.792;2022-09-09T11:59:03;3.28;;;0.98;;
9398;SDS011;4739;49.334;8.792;2022-09-09T12:01:34;2.60;;;0.90;;
9398;SDS011;4739;49.334;8.792;2022-09-09T12:06:41;3.13;;;0.80;;
9398;SDS011;4739;49.334;8.792;2022-09-09T12:09:27;4.13;;;1.10;;
9398;SDS011;4739;49.334;8.792;2022-09-09T12:17:09;1.70;;;0.63;;
9398;SDS011;4739;49.334;8.792;2022-09-09T12:19:41;2.85;;;0.80;;
9398;SDS011;4739;49.334;8.792;2022-09-09T12:28:22;2.45;;;1.00;;
9398;SDS011;4739;49.334;8.792;2022-09-09T12:31:14;2.90;;;1.02;;
9398;SDS011;4739;49.334;8.792;2022-09-09T12:33:45;3.90;;;0.75;;
9398;SDS011;4739;49.334;8.792;2022-09-09T12:36:22;1.40;;;0.65;;
9398;SDS011;4739;49.334;8.792;2022-09-09T12:38:54;1.40;;;0.70;;
9398;SDS011;4739;49.334;8.792;2022-09-09T12:41:26;2.08;;;0.60;;
9398;SDS011;4739;49.334;8.792;2022-09-09T12:44:08;3.85;;;0.90;;
9398;SDS011;4739;49.334;8.792;2022-09-09T12:46:36;4.63;;;1.00;;
9398;SDS011;4739;49.334;8.792;2022-09-09T12:51:52;2.20;;;0.80;;
9398;SDS011;4739;49.334;8.792;2022-09-09T12:54:18;2.67;;;0.90;;
9398;SDS011;4739;49.334;8.792;2022-09-09T12:56:45;3.10;;;0.80;;
9398;SDS011;4739;49.334;8.792;2022-09-09T12:59:26;3.17;;;0.87;;
9398;SDS011;4739;49.334;8.792;2022-09-09T13:02:00;2.87;;;0.90;;
9398;SDS011;4739;49.334;8.792;2022-09-09T13:04:26;1.87;;;0.90;;
9398;SDS011;4739;49.334;8.792;2022-09-09T13:06:51;2.77;;;1.07;;
9398;SDS011;4739;49.334;8.792;2022-09-09T13:09:17;3.20;;;1.13;;
9398;SDS011;4739;49.334;8.792;2022-09-09T13:11:48;1.90;;;0.70;;
9398;SDS011;4739;49.334;8.792;2022-09-09T13:14:18;2.57;;;0.80;;
9398;SDS011;4739;49.334;8.792;2022-09-09T13:16:57;3.47;;;0.70;;
9398;SDS011;4739;49.334;8.792;2022-09-09T13:19:24;3.57;;;0.90;;
9398;SDS011;4739;49.334;8.792;2022-09-09T13:21:53;2.27;;;1.00;;
9398;SDS011;4739;49.334;8.792;2022-09-09T13:24:30;3.80;;;1.20;;
9398;SDS011;4739;49.334;8.792;2022-09-09T13:26:59;1.53;;;0.70;;
9398;SDS011;4739;49.334;8.792;2022-09-09T13:29:27;1.77;;;0.60;;
9398;SDS011;4739;49.334;8.792;2022-09-09T13:31:53;2.37;;;0.77;;
9398;SDS011;4739;49.334;8.792;2022-09-09T13:34:32;1.60;;;0.50;;
9398;SDS011;4739;49.334;8.792;2022-09-09T13:37:01;2.43;;;0.50;;
9398;SDS011;4739;49.334;8.792;2022-09-09T13:39:31;2.53;;;0.70;;
9398;SDS011;4739;49.334;8.792;2022-09-09T13:41:59;2.13;;;0.70;;
9398;SDS011;4739;49.334;8.792;2022-09-09T13:49:29;4.83;;;0.80;;
9398;SDS011;4739;49.334;8.792;2022-09-09T13:52:14;1.93;;;0.40;;
9398;SDS011;4739;49.334;8.792;2022-09-09T13:54:48;1.87;;;0.70;;
9398;SDS011;4739;49.334;8.792;2022-09-09T13:57:18;2.03;;;0.50;;
9398;SDS011;4739;49.334;8.792;2022-09-09T13:59:46;3.07;;;0.60;;
9398;SDS011;4739;49.334;8.792;2022-09-09T14:02:12;2.50;;;0.50;;
9398;SDS011;4739;49.334;8.792;2022-09-09T14:04:38;1.17;;;0.37;;
9398;SDS011;4739;49.334;8.792;2022-09-09T14:07:07;1.80;;;0.70;;
9398;SDS011;4739;49.334;8.792;2022-09-09T14:09:38;1.67;;;0.60;;
9398;SDS011;4739;49.334;8.792;2022-09-09T14:12:04;2.17;;;0.67;;
9398;SDS011;4739;49.334;8.792;2022-09-09T14:14:30;1.33;;;0.50;;
9398;SDS011;4739;49.334;8.792;2022-09-09T14:16:56;2.90;;;0.63;;
9398;SDS011;4739;49.334;8.792;2022-09-09T14:19:22;1.50;;;0.50;;
9398;SDS011;4739;49.334;8.792;2022-09-09T14:21:48;1.83;;;0.63;;
9398;SDS011;4739;49.334;8.792;2022-09-09T14:24:15;1.70;;;0.60;;
9398;SDS011;4739;49.334;8.792;2022-09-09T14:26:41;1.73;;;0.80;;
9398;SDS011;4739;49.334;8.792;2022-09-09T14:29:07;2.60;;;0.70;;
9398;SDS011;4739;49.334;8.792;2022-09-09T14:31:33;1.37;;;0.40;;
9398;SDS011;4739;49.334;8.792;2022-09-09T14:33:59;1.90;;;0.60;;
9398;SDS011;4739;49.334;8.792;2022-09-09T14:36:25;2.67;;;0.33;;
9398;SDS011;4739;49.334;8.792;2022-09-09T14:38:51;1.70;;;0.60;;
9398;SDS011;4739;49.334;8.792;2022-09-09T14:41:17;0.93;;;0.40;;
9398;SDS011;4739;49.334;8.792;2022-09-09T14:43:44;1.30;;;0.37;;
9398;SDS011;4739;49.334;8.792;2022-09-09T14:46:15;2.90;;;0.70;;
9398;SDS011;4739;49.334;8.792;2022-09-09T14:48:41;1.47;;;0.60;;
9398;SDS011;4739;49.334;8.792;2022-09-09T14:51:09;2.13;;;0.57;;
9398;SDS011;4739;49.334;8.792;2022-09-09T14:53:36;1.60;;;0.50;;
9398;SDS011;4739;49.334;8.792;2022-09-09T14:56:03;2.90;;;0.63;;
9398;SDS011;4739;49.334;8.792;2022-09-09T14:58:30;2.27;;;0.80;;
9398;SDS011;4739;49.334;8.792;2022-09-09T15:01:01;1.73;;;0.47;;
9398;SDS011;4739;49.334;8.792;2022-09-09T15:03:27;5.37;;;0.80;;
9398;SDS011;4739;49.334;8.792;2022-09-09T15:05:53;2.53;;;0.70;;
9398;SDS011;4739;49.334;8.792;2022-09-09T15:08:19;1.40;;;0.60;;
9398;SDS011;4739;49.334;8.792;2022-09-09T15:10:45;3.93;;;0.90;;
9398;SDS011;4739;49.334;8.792;2022-09-09T15:13:12;1.83;;;0.57;;
9398;SDS011;4739;49.334;8.792;2022-09-09T15:15:41;1.80;;;0.73;;
9398;SDS011;4739;49.334;8.792;2022-09-09T15:18:08;1.97;;;0.70;;
9398;SDS011;4739;49.334;8.792;2022-09-09T15:20:34;2.83;;;0.90;;
9398;SDS011;4739;49.334;8.792;2022-09-09T15:23:02;2.73;;;0.70;;
9398;SDS011;4739;49.334;8.792;2022-09-09T15:25:28;3.00;;;0.70;;
9398;SDS011;4739;49.334;8.792;2022-09-09T15:27:54;3.17;;;0.60;;
9398;SDS011;4739;49.334;8.792;2022-09-09T15:30:21;2.73;;;1.00;;
9398;SDS011;4739;49.334;8.792;2022-09-09T15:32:47;3.63;;;0.90;;
9398;SDS011;4739;49.334;8.792;2022-09-09T15:35:13;1.70;;;0.90;;
9398;SDS011;4739;49.334;8.792;2022-09-09T15:37:39;3.20;;;0.97;;
9398;SDS011;4739;49.334;8.792;2022-09-09T15:40:05;1.57;;;0.80;;
9398;SDS011;4739;49.334;8.792;2022-09-09T15:42:31;1.13;;;0.50;;
9398;SDS011;4739;49.334;8.792;2022-09-09T15:44:57;2.07;;;0.90;;
9398;SDS011;4739;49.334;8.792;2022-09-09T15:47:23;2.13;;;0.77;;
9398;SDS011;4739;49.334;8.792;2022-09-09T15:49:49;4.33;;;0.77;;
9398;SDS011;4739;49.334;8.792;2022-09-09T15:52:15;1.57;;;0.70;;
9398;SDS011;4739;49.334;8.792;2022-09-09T15:54:41;2.60;;;1.13;;
9398;SDS011;4739;49.334;8.792;2022-09-09T15:57:10;1.83;;;0.80;;
9398;SDS011;4739;49.334;8.792;2022-09-09T15:59:37;2.17;;;0.80;;
9398;SDS011;4739;49.334;8.792;2022-09-09T16:02:03;2.70;;;0.90;;
9398;SDS011;4739;49.334;8.792;2022-09-09T16:04:30;1.87;;;0.60;;
9398;SDS011;4739;49.334;8.792;2022-09-09T16:06:57;2.20;;;0.80;;
9398;SDS011;4739;49.334;8.792;2022-09-09T16:09:24;3.17;;;1.00;;
9398;SDS011;4739;49.334;8.792;2022-09-09T16:11:50;2.17;;;0.77;;
9398;SDS011;4739;49.334;8.792;2022-09-09T16:14:18;2.97;;;0.70;;
9398;SDS011;4739;49.334;8.792;2022-09-09T16:16:44;3.03;;;0.77;;
9398;SDS011;4739;49.334;8.792;2022-09-09T16:19:11;2.73;;;0.73;;
9398;SDS011;4739;49.334;8.792;2022-09-09T16:21:42;1.87;;;0.83;;
9398;SDS011;4739;49.334;8.792;2022-09-09T16:24:09;3.67;;;0.90;;
9398;SDS011;4739;49.334;8.792;2022-09-09T16:26:35;2.13;;;0.67;;
9398;SDS011;4739;49.334;8.792;2022-09-09T16:29:02;1.83;;;0.60;;
9398;SDS011;4739;49.334;8.792;2022-09-09T16:31:29;1.60;;;0.90;;
9398;SDS011;4739;49.334;8.792;2022-09-09T16:33:56;1.40;;;0.73;;
9398;SDS011;4739;49.334;8.792;2022-09-09T16:36:23;2.53;;;0.67;;
9398;SDS011;4739;49.334;8.792;2022-09-09T16:38:53;1.83;;;0.57;;
9398;SDS011;4739;49.334;8.792;2022-09-09T16:41:20;2.20;;;0.70;;
9398;SDS011;4739;49.334;8.792;2022-09-09T16:43:46;3.73;;;0.87;;
9398;SDS011;4739;49.334;8.792;2022-09-09T16:46:13;2.37;;;0.70;;
9398;SDS011;4739;49.334;8.792;2022-09-09T16:48:40;2.97;;;0.97;;
9398;SDS011;4739;49.334;8.792;2022-09-09T16:51:07;2.07;;;0.67;;
9398;SDS011;4739;49.334;8.792;2022-09-09T16:53:35;1.10;;;0.70;;
9398;SDS011;4739;49.334;8.792;2022-09-09T16:56:05;2.17;;;0.67;;
9398;SDS011;4739;49.334;8.792;2022-09-09T16:58:31;2.43;;;0.93;;
9398;SDS011;4739;49.334;8.792;2022-09-09T17:00:59;2.77;;;1.03;;
9398;SDS011;4739;49.334;8.792;2022-09-09T17:03:25;2.50;;;0.90;;
9398;SDS011;4739;49.334;8.792;2022-09-09T17:05:51;1.93;;;0.53;;
9398;SDS011;4739;49.334;8.792;2022-09-09T17:08:16;1.13;;;0.60;;
9398;SDS011;4739;49.334;8.792;2022-09-09T17:10:42;2.87;;;1.00;;
9398;SDS011;4739;49.334;8.792;2022-09-09T17:13:08;3.17;;;1.00;;
9398;SDS011;4739;49.334;8.792;2022-09-09T17:15:43;3.13;;;1.10;;
9398;SDS011;4739;49.334;8.792;2022-09-09T17:18:10;4.37;;;1.03;;
9398;SDS011;4739;49.334;8.792;2022-09-09T17:20:37;4.03;;;0.87;;
9398;SDS011;4739;49.334;8.792;2022-09-09T17:23:03;2.30;;;0.80;;
9398;SDS011;4739;49.334;8.792;2022-09-09T17:25:29;1.67;;;0.77;;